Time;durP1;ratioP1;P1;durP2;ratioP2;P2;SDS_P1;SDS_P2;PMS_P1;PMS_P2;Temp;Humidity;BMP_temperature;BMP_pressure;BME280_temperature;BME280_humidity;BME280_pressure;Samples;Min_cycle;Max_cycle;Signal;HPM_P1;HPM_P2
2024/01/22 00:01:42;;;;;;;;;;;;;;;13.63;100.00;99446.56;7343207;19;20016;-67
2024/01/22 00:04:10;;;;;;;;;;;;;;;13.58;100.00;99430.50;7343853;19;20623;-67
2024/01/22 00:06:38;;;;;;;;;;;;;;;13.63;100.00;99428.88;7346819;19;19915;-67
2024/01/22 00:09:05;;;;;;;;;;;;;;;13.65;100.00;99424.19;7347632;19;20513;-67
2024/01/22 00:11:32;;;;;;;;;;;;;;;13.61;100.00;99408.97;7351117;19;19929;-68
2024/01/22 00:13:59;;;;;;;;;;;;;;;13.65;100.00;99399.59;7342267;19;19953;-68
2024/01/22 00:16:27;;;;;;;;;;;;;;;13.68;100.00;99407.91;7347169;19;19923;-67
2024/01/22 00:18:54;;;;;;;;;;;;;;;13.67;100.00;99424.78;7345168;19;19922;-68
2024/01/22 00:21:21;;;;;;;;;;;;;;;13.68;100.00;99407.09;7344755;19;19918;-67
2024/01/22 00:23:48;;;;;;;;;;;;;;;13.72;100.00;99410.94;7346953;19;20457;-66
2024/01/22 00:26:15;;;;;;;;;;;;;;;13.68;100.00;99404.44;7343883;19;20846;-67
2024/01/22 00:28:42;;;;;;;;;;;;;;;13.72;100.00;99400.38;7345968;19;19951;-68
2024/01/22 00:31:09;;;;;;;;;;;;;;;13.71;100.00;99386.34;7348819;19;19978;-68
2024/01/22 00:33:36;;;;;;;;;;;;;;;13.69;100.00;99382.28;7340452;19;19919;-67
2024/01/22 00:36:03;;;;;;;;;;;;;;;13.70;100.00;99373.34;7350113;19;20371;-67
2024/01/22 00:38:31;;;;;;;;;;;;;;;13.60;100.00;99365.88;7351532;19;20856;-67
2024/01/22 00:40:58;;;;;;;;;;;;;;;13.62;100.00;99345.31;7355809;19;19934;-67
2024/01/22 00:43:24;;;;;;;;;;;;;;;13.60;100.00;99359.75;7351739;19;19911;-67
2024/01/22 00:45:51;;;;;;;;;;;;;;;13.64;100.00;99360.97;7356184;19;19919;-68
2024/01/22 00:48:18;;;;;;;;;;;;;;;13.64;100.00;99358.31;7350447;19;20277;-68
2024/01/22 00:50:46;;;;;;;;;;;;;;;13.66;100.00;99348.34;7354122;19;20057;-69
2024/01/22 00:53:12;;;;;;;;;;;;;;;13.56;100.00;99356.69;7336679;19;19938;-67
2024/01/22 00:55:39;;;;;;;;;;;;;;;13.62;100.00;99355.06;7345564;19;19923;-66
2024/01/22 00:58:06;;;;;;;;;;;;;;;13.62;100.00;99363.00;7348686;19;19942;-67
2024/01/22 01:00:42;;;;;;;;;;;;;;;13.62;100.00;99347.94;7353844;19;20339;-68
2024/01/22 01:03:09;;;;;;;;;;;;;;;13.67;100.00;99356.06;7349507;19;20034;-68
2024/01/22 01:05:36;;;;;;;;;;;;;;;13.67;100.00;99348.13;7348856;19;19930;-67
2024/01/22 01:08:03;;;;;;;;;;;;;;;13.66;100.00;99332.50;7335944;19;19929;-68
2024/01/22 01:10:30;;;;;;;;;;;;;;;13.65;100.00;99336.16;7338255;19;20399;-69
2024/01/22 01:12:57;;;;;;;;;;;;;;;13.68;100.00;99336.53;7339633;19;19915;-68
2024/01/22 01:15:24;;;;;;;;;;;;;;;13.73;100.00;99335.91;7349491;19;20612;-67
2024/01/22 01:17:51;;;;;;;;;;;;;;;13.72;100.00;99342.22;7341739;19;20860;-68
2024/01/22 01:20:18;;;;;;;;;;;;;;;13.77;100.00;99321.25;7337618;19;19922;-67
2024/01/22 01:22:45;;;;;;;;;;;;;;;13.77;100.00;99329.16;7340897;19;19915;-68
2024/01/22 01:25:12;;;;;;;;;;;;;;;13.74;100.00;99316.38;7349430;19;19934;-68
2024/01/22 01:27:39;;;;;;;;;;;;;;;13.73;100.00;99301.53;7355951;19;19914;-67
2024/01/22 01:30:06;;;;;;;;;;;;;;;13.76;100.00;99314.34;7358136;19;19925;-68
2024/01/22 01:32:33;;;;;;;;;;;;;;;13.78;100.00;99316.78;7349408;19;20600;-67
2024/01/22 01:35:00;;;;;;;;;;;;;;;13.82;100.00;99299.44;7350488;19;19915;-67
2024/01/22 01:37:27;;;;;;;;;;;;;;;13.83;100.00;99309.81;7345587;19;19942;-67
2024/01/22 01:39:54;;;;;;;;;;;;;;;13.90;100.00;99317.75;7348261;19;20627;-67
2024/01/22 01:42:21;;;;;;;;;;;;;;;13.93;100.00;99312.00;7342185;19;19995;-68
2024/01/22 01:44:49;;;;;;;;;;;;;;;13.97;100.00;99314.00;7343996;19;21953;-67
2024/01/22 01:47:17;;;;;;;;;;;;;;;14.03;100.00;99305.25;7341636;19;20354;-68
2024/01/22 01:49:45;;;;;;;;;;;;;;;14.05;100.00;99299.75;7335656;19;19929;-68
2024/01/22 01:52:13;;;;;;;;;;;;;;;14.06;100.00;99320.69;7333180;19;21611;-68
2024/01/22 01:54:42;;;;;;;;;;;;;;;14.10;100.00;99336.94;7338795;19;20415;-68
2024/01/22 01:57:09;;;;;;;;;;;;;;;14.13;100.00;99339.97;7341266;19;19942;-67
2024/01/22 01:59:38;;;;;;;;;;;;;;;14.17;100.00;99324.47;7346862;19;19949;-67
2024/01/22 02:02:05;;;;;;;;;;;;;;;14.14;100.00;99344.25;7346489;19;19919;-66
2024/01/22 02:04:32;;;;;;;;;;;;;;;14.20;100.00;99323.25;7344965;19;19963;-67
2024/01/22 02:06:59;;;;;;;;;;;;;;;14.23;100.00;99328.09;7347491;19;20352;-67
2024/01/22 02:09:48;;;;;;;;;;;;;;;14.22;100.00;99335.22;7351024;19;19943;-67
2024/01/22 02:12:15;;;;;;;;;;;;;;;14.23;100.00;99338.69;7343812;19;19987;-67
2024/01/22 02:14:43;;;;;;;;;;;;;;;14.20;100.00;99342.59;7349361;19;19922;-67
2024/01/22 02:17:10;;;;;;;;;;;;;;;14.18;100.00;99341.16;7333333;19;20025;-67
2024/01/22 02:19:37;;;;;;;;;;;;;;;14.19;100.00;99354.19;7346378;19;19947;-67
2024/01/22 02:22:04;;;;;;;;;;;;;;;14.21;100.00;99348.69;7339041;19;19955;-66
2024/01/22 02:24:31;;;;;;;;;;;;;;;14.22;100.00;99347.66;7354141;19;20539;-66
2024/01/22 02:26:58;;;;;;;;;;;;;;;14.20;100.00;99342.59;7346802;19;20594;-67
2024/01/22 02:29:25;;;;;;;;;;;;;;;14.21;100.00;99348.69;7344133;19;19910;-66
2024/01/22 02:31:53;;;;;;;;;;;;;;;14.16;100.00;99367.84;7340549;19;19983;-66
2024/01/22 02:34:24;;;;;;;;;;;;;;;14.12;100.00;99388.59;7334855;19;19929;-66
2024/01/22 02:36:51;;;;;;;;;;;;;;;14.11;100.00;99396.78;7342687;19;19919;-66
2024/01/22 02:39:18;;;;;;;;;;;;;;;14.10;100.00;99406.53;7345618;19;20683;-66
2024/01/22 02:41:45;;;;;;;;;;;;;;;14.09;100.00;99398.81;7340674;19;19919;-65
2024/01/22 02:44:12;;;;;;;;;;;;;;;14.08;100.00;99402.47;7336470;19;20331;-65
2024/01/22 02:46:39;;;;;;;;;;;;;;;14.01;100.00;99405.16;7344669;19;21593;-67
2024/01/22 02:49:06;;;;;;;;;;;;;;;13.98;99.81;99399.47;7338532;19;19931;-65
2024/01/22 02:51:34;;;;;;;;;;;;;;;13.97;99.52;99411.06;7344281;19;19941;-65
2024/01/22 02:54:00;;;;;;;;;;;;;;;13.96;99.72;99420.03;7337752;19;19918;-68
2024/01/22 02:56:27;;;;;;;;;;;;;;;13.94;99.52;99416.78;7342988;19;19922;-66
2024/01/22 02:58:55;;;;;;;;;;;;;;;13.95;98.98;99423.69;7342562;19;19986;-65
2024/01/22 03:01:22;;;;;;;;;;;;;;;13.95;98.94;99421.88;7344376;19;20352;-66
2024/01/22 03:03:49;;;;;;;;;;;;;;;13.94;99.03;99416.78;7344522;19;19950;-65
2024/01/22 03:06:16;;;;;;;;;;;;;;;13.92;98.48;99421.44;7346808;19;19926;-66
2024/01/22 03:08:43;;;;;;;;;;;;;;;13.91;98.80;99417.19;7336637;19;19939;-66
2024/01/22 03:11:18;;;;;;;;;;;;;;;13.91;99.16;99427.78;7344920;19;19919;-66
2024/01/22 03:13:48;;;;;;;;;;;;;;;13.91;98.47;99435.72;7340008;19;19915;-66
2024/01/22 03:16:19;;;;;;;;;;;;;;;13.94;98.65;99443.22;7344448;19;19914;-65
2024/01/22 03:18:49;;;;;;;;;;;;;;;13.92;98.33;99435.47;7345814;19;19934;-64
2024/01/22 03:21:16;;;;;;;;;;;;;;;13.95;98.16;99458.06;7339621;19;20336;-67
2024/01/22 03:23:43;;;;;;;;;;;;;;;13.93;97.97;99452.97;7342600;19;19933;-66
2024/01/22 03:26:23;;;;;;;;;;;;;;;13.98;97.65;99437.28;7342942;19;20002;-66
2024/01/22 03:28:50;;;;;;;;;;;;;;;14.04;97.85;99454.16;7351804;19;20005;-65
2024/01/22 03:31:27;;;;;;;;;;;;;;;14.04;97.32;99446.22;7356563;19;19994;-66
2024/01/22 03:33:54;;;;;;;;;;;;;;;14.01;97.07;99454.59;7359505;19;19955;-66
2024/01/22 03:36:22;;;;;;;;;;;;;;;13.98;95.79;99450.53;7352838;19;19919;-66
2024/01/22 03:38:50;;;;;;;;;;;;;;;13.94;95.48;99448.50;7351838;19;19918;-66
2024/01/22 03:41:17;;;;;;;;;;;;;;;13.96;96.06;99442.00;7343943;19;19919;-66
2024/01/22 03:43:44;;;;;;;;;;;;;;;13.94;95.74;99457.25;7352006;19;20163;-66
2024/01/22 03:46:11;;;;;;;;;;;;;;;13.94;95.42;99459.91;7348475;19;20835;-65
2024/01/22 03:48:38;;;;;;;;;;;;;;;13.93;94.98;99454.81;7342534;19;19925;-66
2024/01/22 03:51:06;;;;;;;;;;;;;;;13.92;95.11;99464.56;7340564;19;19918;-65
2024/01/22 03:53:33;;;;;;;;;;;;;;;13.93;94.90;99460.09;7337482;19;20011;-66
2024/01/22 03:56:06;;;;;;;;;;;;;;;13.92;94.41;99455.81;7337527;19;20306;-65
2024/01/22 03:58:33;;;;;;;;;;;;;;;13.91;94.37;99464.81;7344716;19;19922;-66
2024/01/22 04:01:01;;;;;;;;;;;;;;;13.93;94.71;99481.25;7342257;19;19937;-65
2024/01/22 04:03:29;;;;;;;;;;;;;;;13.92;94.36;99464.56;7341261;19;19929;-67
2024/01/22 04:05:56;;;;;;;;;;;;;;;13.97;94.85;99463.94;7347949;19;20034;-66
2024/01/22 04:08:23;;;;;;;;;;;;;;;13.94;93.87;99478.41;7353491;19;20525;-66
2024/01/22 04:10:50;;;;;;;;;;;;;;;13.97;94.53;99485.09;7351990;19;19915;-65
2024/01/22 04:13:16;;;;;;;;;;;;;;;13.98;93.69;99482.25;7348728;19;19919;-66
2024/01/22 04:15:44;;;;;;;;;;;;;;;14.01;93.71;99487.16;7344439;19;20011;-66
2024/01/22 04:18:11;;;;;;;;;;;;;;;13.98;93.64;99506.06;7347426;19;19929;-65
2024/01/22 04:20:38;;;;;;;;;;;;;;;14.01;93.97;99518.06;7344586;19;19926;-65
2024/01/22 04:23:05;;;;;;;;;;;;;;;14.01;94.65;99563.03;7350837;19;19940;-66
2024/01/22 04:25:32;;;;;;;;;;;;;;;14.01;96.07;99570.97;7347075;19;22021;-65
2024/01/22 04:27:59;;;;;;;;;;;;;;;13.91;96.59;99574.03;7343915;19;19918;-67
2024/01/22 04:30:26;;;;;;;;;;;;;;;13.79;96.82;99593.34;7350622;19;19919;-66
2024/01/22 04:32:53;;;;;;;;;;;;;;;13.72;96.73;99619.78;7346978;19;19923;-66
2024/01/22 04:35:20;;;;;;;;;;;;;;;13.61;96.53;99617.78;7344934;19;19918;-66
2024/01/22 04:37:47;;;;;;;;;;;;;;;13.49;96.30;99648.44;7347235;19;20605;-66
2024/01/22 04:40:14;;;;;;;;;;;;;;;13.36;95.86;99643.94;7343636;19;19942;-66
2024/01/22 04:42:41;;;;;;;;;;;;;;;13.25;96.65;99648.00;7347749;19;20443;-66
2024/01/22 04:45:08;;;;;;;;;;;;;;;13.17;97.32;99642.88;7344410;19;19915;-66
2024/01/22 04:47:36;;;;;;;;;;;;;;;13.09;96.91;99653.59;7345282;19;19927;-65
2024/01/22 04:50:04;;;;;;;;;;;;;;;13.03;96.53;99650.94;7346652;19;20422;-65
2024/01/22 04:52:31;;;;;;;;;;;;;;;12.95;96.97;99646.66;7344080;19;19921;-66
2024/01/22 04:54:59;;;;;;;;;;;;;;;12.84;96.02;99661.22;7335442;19;19952;-67
2024/01/22 04:57:41;;;;;;;;;;;;;;;12.75;95.61;99672.94;7342935;19;20296;-65
2024/01/22 05:00:08;;;;;;;;;;;;;;;12.70;96.10;99671.88;7339439;19;19923;-65
2024/01/22 05:02:37;;;;;;;;;;;;;;;12.63;95.63;99660.50;7330342;19;19942;-65
2024/01/22 05:05:04;;;;;;;;;;;;;;;12.56;95.79;99696.56;7345080;19;19911;-66
2024/01/22 05:07:31;;;;;;;;;;;;;;;12.50;96.69;99684.16;7348958;19;19922;-65
2024/01/22 05:09:59;;;;;;;;;;;;;;;12.48;96.92;99686.19;7349741;19;20573;-64
2024/01/22 05:12:26;;;;;;;;;;;;;;;12.47;97.12;99701.19;7346208;19;19923;-65
2024/01/22 05:14:57;;;;;;;;;;;;;;;12.39;95.78;99704.78;7348202;19;20713;-65
2024/01/22 05:17:28;;;;;;;;;;;;;;;12.36;96.32;99696.44;7340189;19;19929;-66
2024/01/22 05:19:55;;;;;;;;;;;;;;;12.33;95.47;99710.03;7343763;19;19919;-66
2024/01/22 05:22:22;;;;;;;;;;;;;;;12.32;96.04;99725.03;7339843;19;20594;-66
2024/01/22 05:24:49;;;;;;;;;;;;;;;12.31;95.23;99725.22;7345520;19;20551;-65
2024/01/22 05:27:16;;;;;;;;;;;;;;;12.26;94.31;99743.44;7345240;19;19939;-67
2024/01/22 05:29:43;;;;;;;;;;;;;;;12.23;94.51;99752.56;7335718;19;19931;-68
2024/01/22 05:32:14;;;;;;;;;;;;;;;12.24;94.50;99751.53;7337264;19;19921;-67
2024/01/22 05:34:40;;;;;;;;;;;;;;;12.27;95.51;99743.25;7344645;19;19957;-68
2024/01/22 05:37:07;;;;;;;;;;;;;;;12.27;95.14;99764.34;7331561;19;19927;-65
2024/01/22 05:39:36;;;;;;;;;;;;;;;12.24;93.96;99777.13;7335834;19;21357;-65
2024/01/22 05:42:03;;;;;;;;;;;;;;;12.19;92.16;99772.38;7344978;19;20014;-71
2024/01/22 05:44:30;;;;;;;;;;;;;;;12.17;92.49;99774.41;7345853;19;19919;-67
2024/01/22 05:46:57;;;;;;;;;;;;;;;12.14;92.17;99779.25;7345979;19;20335;-65
2024/01/22 05:49:24;;;;;;;;;;;;;;;12.13;92.80;99783.72;7338570;19;19921;-65
2024/01/22 05:51:55;;;;;;;;;;;;;;;12.12;93.10;99775.97;7338072;19;20403;-65
2024/01/22 05:54:22;;;;;;;;;;;;;;;12.11;92.94;99782.25;7340447;19;21532;-66
2024/01/22 05:56:49;;;;;;;;;;;;;;;12.11;92.87;99787.53;7335359;19;19930;-65
2024/01/22 05:59:16;;;;;;;;;;;;;;;12.06;92.76;99790.72;7341552;19;19915;-66
2024/01/22 06:01:43;;;;;;;;;;;;;;;12.04;92.03;99807.75;7339291;19;19921;-66
2024/01/22 06:04:10;;;;;;;;;;;;;;;11.99;92.34;99805.66;7345739;19;19925;-67
2024/01/22 06:06:37;;;;;;;;;;;;;;;11.98;92.72;99820.69;7345809;19;21308;-65
2024/01/22 06:09:06;;;;;;;;;;;;;;;11.98;92.56;99820.69;7347829;19;20202;-67
2024/01/22 06:11:33;;;;;;;;;;;;;;;12.00;92.33;99833.66;7349543;19;19910;-67
2024/01/22 06:14:00;;;;;;;;;;;;;;;12.01;92.04;99832.66;7344759;19;19930;-66
2024/01/22 06:16:28;;;;;;;;;;;;;;;12.02;92.09;99847.47;7348258;19;19943;-65
2024/01/22 06:18:56;;;;;;;;;;;;;;;12.05;92.06;99847.09;7342897;19;20628;-66
2024/01/22 06:21:24;;;;;;;;;;;;;;;12.10;92.50;99850.00;7342708;19;20489;-66
2024/01/22 06:23:51;;;;;;;;;;;;;;;12.10;92.24;99862.34;7334540;19;20971;-66
2024/01/22 06:26:19;;;;;;;;;;;;;;;12.13;91.89;99870.72;7335266;19;19925;-65
2024/01/22 06:28:47;;;;;;;;;;;;;;;12.15;91.53;99878.44;7347935;19;20281;-66
2024/01/22 06:31:15;;;;;;;;;;;;;;;12.12;91.08;99881.47;7353074;19;19939;-65
2024/01/22 06:33:43;;;;;;;;;;;;;;;12.07;90.43;99883.84;7351931;19;19915;-66
2024/01/22 06:36:11;;;;;;;;;;;;;;;12.01;89.93;99893.31;7354680;19;19949;-66
2024/01/22 06:38:38;;;;;;;;;;;;;;;12.03;90.56;99904.50;7350181;19;19974;-66
2024/01/22 06:41:11;;;;;;;;;;;;;;;12.04;90.81;99921.13;7344644;19;19923;-66
2024/01/22 06:43:39;;;;;;;;;;;;;;;11.98;89.29;99933.22;7345283;19;19915;-66
2024/01/22 06:46:06;;;;;;;;;;;;;;;11.96;88.27;99948.41;7346543;19;21014;-66
2024/01/22 06:48:33;;;;;;;;;;;;;;;11.96;88.67;99954.50;7336157;19;19922;-66
2024/01/22 06:51:01;;;;;;;;;;;;;;;11.99;89.29;99956.75;7339916;19;19910;-66
2024/01/22 06:53:28;;;;;;;;;;;;;;;12.03;89.40;99964.31;7341512;19;19922;-66
2024/01/22 06:55:56;;;;;;;;;;;;;;;12.07;90.05;99953.22;7341420;19;19923;-66
2024/01/22 06:58:23;;;;;;;;;;;;;;;12.05;89.40;99978.94;7339114;19;19942;-67
2024/01/22 07:00:53;;;;;;;;;;;;;;;12.05;89.30;99978.94;7347738;19;19918;-65
2024/01/22 07:03:21;;;;;;;;;;;;;;;12.07;88.08;99984.03;7343568;19;19932;-67
2024/01/22 07:05:49;;;;;;;;;;;;;;;12.05;87.31;99996.56;7351290;19;19927;-69
2024/01/22 07:08:17;;;;;;;;;;;;;;;12.08;87.06;99988.31;7351598;19;20459;-67
2024/01/22 07:10:45;;;;;;;;;;;;;;;12.04;87.21;99989.69;7355945;19;20320;-67
2024/01/22 07:13:12;;;;;;;;;;;;;;;12.04;87.62;99998.38;7335549;19;20505;-65
2024/01/22 07:15:40;;;;;;;;;;;;;;;11.94;86.06;99997.84;7344460;19;20632;-67
2024/01/22 07:18:08;;;;;;;;;;;;;;;11.96;86.56;100017.75;7341078;19;19922;-66
2024/01/22 07:20:35;;;;;;;;;;;;;;;11.98;87.08;100022.88;7341216;19;19930;-66
2024/01/22 07:23:03;;;;;;;;;;;;;;;11.95;86.45;100031.94;7334625;19;19923;-65
2024/01/22 07:25:34;;;;;;;;;;;;;;;11.89;86.84;100030.03;7328106;19;20179;-66
2024/01/22 07:28:01;;;;;;;;;;;;;;;11.88;86.43;100038.97;7325662;19;20208;-66
2024/01/22 07:30:29;;;;;;;;;;;;;;;11.87;86.02;100044.41;7330309;19;19919;-66
2024/01/22 07:32:57;;;;;;;;;;;;;;;11.83;86.41;100048.41;7338420;19;20638;-65
2024/01/22 07:35:24;;;;;;;;;;;;;;;11.78;85.75;100045.47;7341588;19;19926;-66
2024/01/22 07:37:52;;;;;;;;;;;;;;;11.77;86.24;100057.84;7339682;19;20662;-65
2024/01/22 07:40:19;;;;;;;;;;;;;;;11.78;87.52;100061.31;7339732;19;19942;-66
2024/01/22 07:42:47;;;;;;;;;;;;;;;11.73;86.06;100061.84;7342080;19;20171;-66
2024/01/22 07:45:15;;;;;;;;;;;;;;;11.75;87.58;100059.81;7341398;19;19939;-66
2024/01/22 07:47:43;;;;;;;;;;;;;;;11.73;87.40;100061.84;7337636;19;19974;-66
2024/01/22 07:50:14;;;;;;;;;;;;;;;11.71;86.21;100076.16;7344002;19;19926;-65
2024/01/22 07:52:41;;;;;;;;;;;;;;;11.68;86.42;100081.78;7338318;19;19915;-65
2024/01/22 07:55:16;;;;;;;;;;;;;;;11.60;85.42;100090.56;7346996;19;19979;-66
2024/01/22 07:57:43;;;;;;;;;;;;;;;11.62;85.07;100098.31;7338657;19;19915;-66
2024/01/22 08:00:13;;;;;;;;;;;;;;;11.61;86.80;100115.09;7337039;19;19926;-66
2024/01/22 08:02:40;;;;;;;;;;;;;;;11.55;87.11;100112.19;7339216;19;19926;-66
2024/01/22 08:05:12;;;;;;;;;;;;;;;11.53;86.55;100108.06;7342211;19;20328;-65
2024/01/22 08:07:43;;;;;;;;;;;;;;;11.55;86.81;100121.91;7348188;19;19923;-70
2024/01/22 08:10:12;;;;;;;;;;;;;;;11.53;85.65;100132.59;7349234;19;19951;-66
2024/01/22 08:12:40;;;;;;;;;;;;;;;11.56;85.99;100136.72;7344423;19;20456;-66
2024/01/22 08:15:07;;;;;;;;;;;;;;;11.58;86.81;100134.69;7347620;19;19923;-66
2024/01/22 08:17:35;;;;;;;;;;;;;;;11.57;86.36;100141.81;7348775;19;19922;-66
2024/01/22 08:20:05;;;;;;;;;;;;;;;11.56;85.91;100149.88;7358538;19;19918;-66
2024/01/22 08:22:32;;;;;;;;;;;;;;;11.53;85.11;100166.03;7356768;19;20979;-65
2024/01/22 08:25:03;;;;;;;;;;;;;;;11.51;85.06;100171.50;7351475;19;21740;-66
2024/01/22 08:27:30;;;;;;;;;;;;;;;11.48;84.19;100186.81;7351687;19;19911;-65
2024/01/22 08:29:57;;;;;;;;;;;;;;;11.43;84.11;100189.13;7361513;19;19918;-67
2024/01/22 08:32:24;;;;;;;;;;;;;;;11.45;84.83;100190.63;7358498;19;20013;-65
2024/01/22 08:34:51;;;;;;;;;;;;;;;11.42;84.41;100198.88;7352380;19;20348;-66
2024/01/22 08:37:18;;;;;;;;;;;;;;;11.43;84.82;100202.31;7352420;19;19954;-66
2024/01/22 08:39:45;;;;;;;;;;;;;;;11.49;84.18;100212.16;7342727;19;20049;-65
2024/01/22 08:42:18;;;;;;;;;;;;;;;11.53;84.23;100208.19;7350450;19;19911;-66
2024/01/22 08:44:45;;;;;;;;;;;;;;;11.57;83.95;100215.59;7346401;19;19929;-66
2024/01/22 08:47:12;;;;;;;;;;;;;;;11.66;83.79;100218.97;7340908;19;20283;-66
2024/01/22 08:49:39;;;;;;;;;;;;;;;11.72;83.40;100228.81;7348911;19;19919;-66
2024/01/22 08:52:09;;;;;;;;;;;;;;;11.76;83.83;100232.78;7352798;19;19930;-65
2024/01/22 08:54:36;;;;;;;;;;;;;;;11.68;82.53;100243.34;7348687;19;20820;-66
2024/01/22 08:57:03;;;;;;;;;;;;;;;11.65;83.01;100250.75;7347498;19;19933;-66
2024/01/22 08:59:30;;;;;;;;;;;;;;;11.65;80.90;100248.13;7341763;19;19911;-66
2024/01/22 09:01:57;;;;;;;;;;;;;;;11.63;81.43;100250.13;7343759;19;19954;-65
2024/01/22 09:04:24;;;;;;;;;;;;;;;11.61;80.99;100257.38;7346922;19;19913;-65
2024/01/22 09:06:55;;;;;;;;;;;;;;;11.63;81.65;100273.84;7352530;19;21171;-66
2024/01/22 09:09:22;;;;;;;;;;;;;;;11.61;80.53;100281.91;7352239;19;20351;-66
2024/01/22 09:11:49;;;;;;;;;;;;;;;11.65;81.69;100285.03;7340064;19;19926;-66
2024/01/22 09:14:16;;;;;;;;;;;;;;;11.68;82.02;100274.97;7341384;19;20703;-66
2024/01/22 09:16:44;;;;;;;;;;;;;;;11.68;81.99;100280.25;7341474;19;20352;-65
2024/01/22 09:19:11;;;;;;;;;;;;;;;11.74;81.73;100273.47;7339169;19;19920;-65
2024/01/22 09:21:38;;;;;;;;;;;;;;;11.84;88.71;100266.97;7349233;19;19921;-65
2024/01/22 09:24:05;;;;;;;;;;;;;;;11.90;82.36;100276.81;7344242;19;20223;-65
2024/01/22 09:26:31;;;;;;;;;;;;;;;11.94;81.51;100272.84;7348606;19;19915;-66
2024/01/22 09:28:58;;;;;;;;;;;;;;;12.08;86.03;100267.81;7350344;19;20707;-65
2024/01/22 09:31:25;;;;;;;;;;;;;;;12.15;83.74;100266.91;7350986;19;19987;-66
2024/01/22 09:33:53;;;;;;;;;;;;;;;12.16;81.81;100273.03;7342303;19;20657;-66
2024/01/22 09:36:21;;;;;;;;;;;;;;;12.14;81.09;100270.56;7355077;19;20614;-67
2024/01/22 09:38:48;;;;;;;;;;;;;;;12.11;79.83;100270.09;7348426;19;20270;-65
2024/01/22 09:41:16;;;;;;;;;;;;;;;12.12;79.15;100284.94;7354749;19;19923;-65
2024/01/22 09:43:43;;;;;;;;;;;;;;;12.08;78.72;100283.66;7339982;19;19919;-67
2024/01/22 09:46:10;;;;;;;;;;;;;;;12.01;79.01;100294.06;7349862;19;19915;-65
2024/01/22 09:48:37;;;;;;;;;;;;;;;11.99;78.51;100296.03;7353123;19;19922;-66
2024/01/22 09:51:06;;;;;;;;;;;;;;;11.97;79.00;100303.31;7345881;19;21521;-66
2024/01/22 09:53:35;;;;;;;;;;;;;;;11.89;77.94;100308.63;7345442;19;20381;-65
2024/01/22 09:56:02;;;;;;;;;;;;;;;11.89;79.51;100309.44;7353202;19;19923;-66
2024/01/22 09:58:30;;;;;;;;;;;;;;;11.83;79.24;100304.06;7329295;19;19925;-66
2024/01/22 10:00:57;;;;;;;;;;;;;;;11.85;79.40;100313.44;7344629;19;20263;-67
2024/01/22 10:03:25;;;;;;;;;;;;;;;11.89;79.79;100316.53;7342650;19;19982;-65
2024/01/22 10:05:54;;;;;;;;;;;;;;;11.92;80.48;100327.56;7344021;19;19926;-66
2024/01/22 10:08:21;;;;;;;;;;;;;;;11.94;79.05;100330.03;7341933;19;19998;-65
2024/01/22 10:10:49;;;;;;;;;;;;;;;11.94;78.78;100337.94;7349574;19;19951;-66
2024/01/22 10:13:17;;;;;;;;;;;;;;;11.98;80.11;100333.97;7343872;19;20428;-68
2024/01/22 10:15:44;;;;;;;;;;;;;;;12.02;79.90;100339.72;7344888;19;19926;-66
2024/01/22 10:18:22;;;;;;;;;;;;;;;12.03;78.36;100342.19;7351905;19;20470;-68
2024/01/22 10:20:57;;;;;;;;;;;;;;;12.02;77.31;100337.91;7345220;19;20607;-66
2024/01/22 10:23:25;;;;;;;;;;;;;;;12.00;78.08;100366.25;7340905;19;21027;-66
2024/01/22 10:26:04;;;;;;;;;;;;;;;11.97;78.60;100363.97;7349774;19;19945;-67
2024/01/22 10:28:31;;;;;;;;;;;;;;;12.01;79.42;100370.53;7341799;19;19923;-66
2024/01/22 10:31:02;;;;;;;;;;;;;;;12.05;78.30;100358.63;7345934;19;19949;-66
2024/01/22 10:33:30;;;;;;;;;;;;;;;12.05;76.73;100373.63;7329851;19;19919;-65
2024/01/22 10:36:12;;;;;;;;;;;;;;;12.10;78.85;100374.75;7346400;19;19927;-66
2024/01/22 10:38:39;;;;;;;;;;;;;;;12.13;77.73;100369.16;7334584;19;20002;-66
2024/01/22 10:41:16;;;;;;;;;;;;;;;12.14;77.43;100370.78;7345942;19;19915;-67
2024/01/22 10:43:45;;;;;;;;;;;;;;;12.13;77.73;100377.06;7340934;19;19911;-66
2024/01/22 10:46:14;;;;;;;;;;;;;;;12.14;78.24;100368.13;7341782;19;20856;-65
2024/01/22 10:48:43;;;;;;;;;;;;;;;12.15;77.72;100382.13;7341576;19;19947;-66
2024/01/22 10:51:14;;;;;;;;;;;;;;;12.13;77.85;100381.50;7346069;19;19939;-66
2024/01/22 10:53:43;;;;;;;;;;;;;;;12.17;76.69;100372.25;7348877;19;19927;-66
2024/01/22 10:56:22;;;;;;;;;;;;;;;12.18;77.30;100384.44;7348172;19;19919;-66
2024/01/22 10:58:52;;;;;;;;;;;;;;;12.21;77.41;100390.19;7340675;19;19922;-66
2024/01/22 11:01:22;;;;;;;;;;;;;;;12.21;76.73;100384.09;7335279;19;19955;-65
2024/01/22 11:03:51;;;;;;;;;;;;;;;12.25;76.51;100394.13;7339731;19;20336;-66
2024/01/22 11:06:21;;;;;;;;;;;;;;;12.28;75.32;100400.88;7344658;19;20588;-66
2024/01/22 11:08:53;;;;;;;;;;;;;;;12.26;75.03;100403.69;7318600;19;19933;-65
2024/01/22 11:11:24;;;;;;;;;;;;;;;12.23;74.46;100398.75;7342337;19;19919;-66
2024/01/22 11:13:52;;;;;;;;;;;;;;;12.31;75.45;100396.06;7347383;19;19919;-66
2024/01/22 11:16:19;;;;;;;;;;;;;;;12.32;74.15;100396.88;7334996;19;20891;-66
2024/01/22 11:18:58;;;;;;;;;;;;;;;12.31;74.15;100398.69;7334897;19;19925;-67
2024/01/22 11:21:37;;;;;;;;;;;;;;;12.27;75.13;100402.69;7349312;19;19922;-66
2024/01/22 11:24:11;;;;;;;;;;;;;;;12.29;75.13;100389.34;7342988;19;19919;-66
2024/01/22 11:26:41;;;;;;;;;;;;;;;12.33;75.99;100394.09;7345931;19;20014;-67
2024/01/22 11:29:09;;;;;;;;;;;;;;;12.41;73.46;100407.22;7343239;19;19946;-67
2024/01/22 11:31:37;;;;;;;;;;;;;;;12.48;74.06;100406.50;7347165;19;19907;-66
2024/01/22 11:34:04;;;;;;;;;;;;;;;12.56;71.72;100411.72;7345524;19;19934;-66
2024/01/22 11:36:50;;;;;;;;;;;;;;;12.64;71.13;100398.47;7347892;19;19915;-66
2024/01/22 11:39:33;;;;;;;;;;;;;;;12.65;70.98;100411.47;7344332;19;20447;-65
2024/01/22 11:42:08;;;;;;;;;;;;;;;12.69;70.71;100418.06;7341888;19;19919;-66
2024/01/22 11:44:40;;;;;;;;;;;;;;;12.73;71.05;100419.34;7345529;19;19978;-66
2024/01/22 11:47:10;;;;;;;;;;;;;;;12.71;70.54;100423.97;7344541;19;19919;-66
2024/01/22 11:49:37;;;;;;;;;;;;;;;12.75;71.71;100422.63;7351361;19;19926;-67
2024/01/22 11:52:24;;;;;;;;;;;;;;;12.80;72.20;100425.56;7350425;19;19919;-66
2024/01/22 11:55:01;;;;;;;;;;;;;;;12.86;69.30;100426.66;7351063;19;19930;-65
2024/01/22 11:57:35;;;;;;;;;;;;;;;12.93;70.44;100411.75;7345694;19;19941;-66
2024/01/22 12:00:05;;;;;;;;;;;;;;;12.97;69.65;100425.44;7353395;19;19930;-65
2024/01/22 12:02:33;;;;;;;;;;;;;;;13.02;70.91;100421.25;7346633;19;19933;-66
2024/01/22 12:05:09;;;;;;;;;;;;;;;13.12;70.81;100424.50;7344534;19;19989;-65
2024/01/22 12:07:38;;;;;;;;;;;;;;;13.17;70.53;100414.22;7350235;19;21058;-67
2024/01/22 12:10:06;;;;;;;;;;;;;;;13.11;70.18;100420.22;7350534;19;19923;-66
2024/01/22 12:12:35;;;;;;;;;;;;;;;13.13;69.61;100422.69;7346286;19;19922;-67
2024/01/22 12:15:03;;;;;;;;;;;;;;;13.14;70.31;100409.31;7357578;19;19911;-67
2024/01/22 12:17:32;;;;;;;;;;;;;;;13.16;70.46;100422.31;7350769;19;20357;-65
2024/01/22 12:19:59;;;;;;;;;;;;;;;13.14;69.55;100414.59;7356553;19;19923;-66
2024/01/22 12:22:27;;;;;;;;;;;;;;;13.10;70.36;100418.56;7344886;19;19930;-65
2024/01/22 12:25:04;;;;;;;;;;;;;;;13.01;69.20;100424.88;7340856;19;19911;-66
2024/01/22 12:27:31;;;;;;;;;;;;;;;12.96;70.45;100421.13;7348527;19;20030;-67
2024/01/22 12:30:01;;;;;;;;;;;;;;;12.89;70.10;100436.91;7349475;19;19930;-65
2024/01/22 12:32:29;;;;;;;;;;;;;;;12.85;70.90;100402.09;7344883;19;19963;-65
2024/01/22 12:34:59;;;;;;;;;;;;;;;12.85;68.96;100431.13;7351473;19;20458;-65
2024/01/22 12:37:27;;;;;;;;;;;;;;;12.85;69.12;100446.13;7353244;19;19941;-65
2024/01/22 12:40:09;;;;;;;;;;;;;;;12.86;70.02;100430.13;7347129;19;19919;-65
2024/01/22 12:42:39;;;;;;;;;;;;;;;12.81;68.82;100434.28;7348638;19;19923;-66
2024/01/22 12:45:09;;;;;;;;;;;;;;;12.78;68.49;100442.59;7356184;19;19923;-67
2024/01/22 12:47:37;;;;;;;;;;;;;;;12.80;69.46;100453.78;7346884;19;20003;-66